sensor_id;sensor_type;location;lat;lon;timestamp;P1;durP1;ratioP1;P2;durP2;ratioP2
62024;SDS011;47978;49.118;12.146;2023-09-18T00:03:13;11.13;;;6.30;;
62024;SDS011;47978;49.118;12.146;2023-09-18T00:07:16;10.68;;;6.60;;
62024;SDS011;47978;49.118;12.146;2023-09-18T00:11:18;9.23;;;6.30;;
62024;SDS011;47978;49.118;12.146;2023-09-18T00:15:19;9.43;;;6.93;;
62024;SDS011;47978;49.118;12.146;2023-09-18T00:19:21;7.75;;;6.03;;
62024;SDS011;47978;49.118;12.146;2023-09-18T00:23:24;8.30;;;6.72;;
62024;SDS011;47978;49.118;12.146;2023-09-18T00:27:25;8.40;;;6.10;;
62024;SDS011;47978;49.118;12.146;2023-09-18T00:31:27;10.43;;;7.28;;
62024;SDS011;47978;49.118;12.146;2023-09-18T00:35:29;9.80;;;7.03;;
62024;SDS011;47978;49.118;12.146;2023-09-18T00:39:32;7.22;;;6.30;;
62024;SDS011;47978;49.118;12.146;2023-09-18T00:43:34;9.02;;;6.53;;
62024;SDS011;47978;49.118;12.146;2023-09-18T00:47:35;8.57;;;6.78;;
62024;SDS011;47978;49.118;12.146;2023-09-18T00:51:37;7.80;;;6.55;;
62024;SDS011;47978;49.118;12.146;2023-09-18T00:55:40;8.77;;;7.00;;
62024;SDS011;47978;49.118;12.146;2023-09-18T00:59:42;9.25;;;6.78;;
62024;SDS011;47978;49.118;12.146;2023-09-18T01:03:44;8.45;;;6.80;;
62024;SDS011;47978;49.118;12.146;2023-09-18T01:07:46;9.40;;;6.50;;
62024;SDS011;47978;49.118;12.146;2023-09-18T01:11:52;9.30;;;7.20;;
62024;SDS011;47978;49.118;12.146;2023-09-18T01:16:02;8.40;;;6.53;;
62024;SDS011;47978;49.118;12.146;2023-09-18T01:20:10;9.27;;;7.43;;
62024;SDS011;47978;49.118;12.146;2023-09-18T01:24:14;10.70;;;8.48;;
62024;SDS011;47978;49.118;12.146;2023-09-18T01:28:16;10.20;;;7.43;;
62024;SDS011;47978;49.118;12.146;2023-09-18T01:32:17;12.85;;;7.68;;
62024;SDS011;47978;49.118;12.146;2023-09-18T01:36:19;9.05;;;7.78;;
62024;SDS011;47978;49.118;12.146;2023-09-18T01:40:22;12.07;;;9.13;;
62024;SDS011;47978;49.118;12.146;2023-09-18T01:44:25;11.80;;;8.23;;
62024;SDS011;47978;49.118;12.146;2023-09-18T01:48:27;11.07;;;7.88;;
62024;SDS011;47978;49.118;12.146;2023-09-18T01:52:28;9.60;;;8.02;;
62024;SDS011;47978;49.118;12.146;2023-09-18T01:56:31;9.45;;;7.72;;
62024;SDS011;47978;49.118;12.146;2023-09-18T02:00:33;10.32;;;7.70;;
62024;SDS011;47978;49.118;12.146;2023-09-18T02:04:35;10.88;;;8.05;;
62024;SDS011;47978;49.118;12.146;2023-09-18T02:08:56;9.38;;;7.57;;
62024;SDS011;47978;49.118;12.146;2023-09-18T02:12:59;10.65;;;7.90;;
62024;SDS011;47978;49.118;12.146;2023-09-18T02:17:01;10.65;;;8.60;;
62024;SDS011;47978;49.118;12.146;2023-09-18T02:21:03;11.70;;;8.82;;
62024;SDS011;47978;49.118;12.146;2023-09-18T02:25:04;12.63;;;9.63;;
62024;SDS011;47978;49.118;12.146;2023-09-18T02:29:08;13.13;;;9.93;;
62024;SDS011;47978;49.118;12.146;2023-09-18T02:33:10;14.07;;;10.57;;
62024;SDS011;47978;49.118;12.146;2023-09-18T02:37:12;13.00;;;9.07;;
62024;SDS011;47978;49.118;12.146;2023-09-18T02:41:13;12.25;;;8.43;;
62024;SDS011;47978;49.118;12.146;2023-09-18T02:45:16;11.82;;;8.55;;
62024;SDS011;47978;49.118;12.146;2023-09-18T02:49:18;12.13;;;8.52;;
62024;SDS011;47978;49.118;12.146;2023-09-18T02:53:20;11.90;;;8.93;;
62024;SDS011;47978;49.118;12.146;2023-09-18T02:57:23;11.02;;;8.40;;
62024;SDS011;47978;49.118;12.146;2023-09-18T03:01:26;14.05;;;9.07;;
62024;SDS011;47978;49.118;12.146;2023-09-18T03:05:31;11.68;;;8.23;;
62024;SDS011;47978;49.118;12.146;2023-09-18T03:09:32;11.43;;;8.68;;
62024;SDS011;47978;49.118;12.146;2023-09-18T03:13:34;11.68;;;9.02;;
62024;SDS011;47978;49.118;12.146;2023-09-18T03:17:37;11.20;;;8.77;;
62024;SDS011;47978;49.118;12.146;2023-09-18T03:25:40;12.20;;;8.82;;
62024;SDS011;47978;49.118;12.146;2023-09-18T03:29:52;10.82;;;8.95;;
62024;SDS011;47978;49.118;12.146;2023-09-18T03:33:55;12.40;;;8.85;;
62024;SDS011;47978;49.118;12.146;2023-09-18T03:37:56;11.52;;;8.05;;
62024;SDS011;47978;49.118;12.146;2023-09-18T03:41:58;14.25;;;9.25;;
62024;SDS011;47978;49.118;12.146;2023-09-18T03:46:03;12.23;;;8.88;;
62024;SDS011;47978;49.118;12.146;2023-09-18T03:50:07;13.02;;;8.80;;
62024;SDS011;47978;49.118;12.146;2023-09-18T03:54:09;13.82;;;9.25;;
62024;SDS011;47978;49.118;12.146;2023-09-18T03:58:11;10.15;;;6.95;;
62024;SDS011;47978;49.118;12.146;2023-09-18T04:02:12;8.43;;;6.72;;
62024;SDS011;47978;49.118;12.146;2023-09-18T04:06:15;9.40;;;7.35;;
62024;SDS011;47978;49.118;12.146;2023-09-18T04:10:17;9.25;;;7.38;;
62024;SDS011;47978;49.118;12.146;2023-09-18T04:14:19;12.88;;;8.32;;
62024;SDS011;47978;49.118;12.146;2023-09-18T04:18:20;8.85;;;7.00;;
62024;SDS011;47978;49.118;12.146;2023-09-18T04:22:23;7.13;;;5.85;;
62024;SDS011;47978;49.118;12.146;2023-09-18T04:26:25;6.22;;;5.45;;
62024;SDS011;47978;49.118;12.146;2023-09-18T04:30:27;10.43;;;6.50;;
62024;SDS011;47978;49.118;12.146;2023-09-18T04:34:28;8.68;;;5.82;;
62024;SDS011;47978;49.118;12.146;2023-09-18T04:38:31;6.80;;;5.60;;
62024;SDS011;47978;49.118;12.146;2023-09-18T04:46:34;10.98;;;5.10;;
62024;SDS011;47978;49.118;12.146;2023-09-18T04:50:36;8.60;;;5.70;;
62024;SDS011;47978;49.118;12.146;2023-09-18T04:54:38;7.18;;;5.47;;
62024;SDS011;47978;49.118;12.146;2023-09-18T05:02:42;8.45;;;6.93;;
62024;SDS011;47978;49.118;12.146;2023-09-18T05:06:44;9.97;;;7.10;;
62024;SDS011;47978;49.118;12.146;2023-09-18T05:10:46;13.52;;;7.40;;
62024;SDS011;47978;49.118;12.146;2023-09-18T05:14:48;9.48;;;7.28;;
62024;SDS011;47978;49.118;12.146;2023-09-18T05:18:50;7.63;;;6.70;;
62024;SDS011;47978;49.118;12.146;2023-09-18T05:22:52;8.98;;;6.88;;
62024;SDS011;47978;49.118;12.146;2023-09-18T05:26:55;11.03;;;6.70;;
62024;SDS011;47978;49.118;12.146;2023-09-18T05:30:57;10.65;;;5.50;;
62024;SDS011;47978;49.118;12.146;2023-09-18T05:34:58;10.43;;;6.35;;
62024;SDS011;47978;49.118;12.146;2023-09-18T05:39:00;9.38;;;6.80;;
62024;SDS011;47978;49.118;12.146;2023-09-18T05:43:03;9.47;;;6.40;;
62024;SDS011;47978;49.118;12.146;2023-09-18T05:51:06;14.20;;;7.13;;
62024;SDS011;47978;49.118;12.146;2023-09-18T05:55:08;7.75;;;6.40;;
62024;SDS011;47978;49.118;12.146;2023-09-18T05:59:11;8.73;;;7.10;;
62024;SDS011;47978;49.118;12.146;2023-09-18T06:07:16;6.93;;;5.85;;
62024;SDS011;47978;49.118;12.146;2023-09-18T06:11:17;7.18;;;5.68;;
62024;SDS011;47978;49.118;12.146;2023-09-18T06:15:20;11.30;;;6.68;;
62024;SDS011;47978;49.118;12.146;2023-09-18T06:19:22;7.93;;;6.35;;
62024;SDS011;47978;49.118;12.146;2023-09-18T06:23:24;9.50;;;6.25;;
62024;SDS011;47978;49.118;12.146;2023-09-18T06:27:25;13.23;;;6.75;;
62024;SDS011;47978;49.118;12.146;2023-09-18T06:31:28;8.88;;;6.75;;
62024;SDS011;47978;49.118;12.146;2023-09-18T06:39:31;8.80;;;5.60;;
62024;SDS011;47978;49.118;12.146;2023-09-18T06:43:33;7.93;;;4.53;;
62024;SDS011;47978;49.118;12.146;2023-09-18T06:47:36;10.02;;;4.55;;
62024;SDS011;47978;49.118;12.146;2023-09-18T06:51:38;6.15;;;4.65;;
62024;SDS011;47978;49.118;12.146;2023-09-18T06:55:44;7.47;;;4.55;;
62024;SDS011;47978;49.118;12.146;2023-09-18T06:59:45;6.97;;;4.47;;
62024;SDS011;47978;49.118;12.146;2023-09-18T07:03:48;5.78;;;4.53;;
62024;SDS011;47978;49.118;12.146;2023-09-18T07:07:50;5.50;;;4.93;;
62024;SDS011;47978;49.118;12.146;2023-09-18T07:11:51;5.65;;;4.75;;
62024;SDS011;47978;49.118;12.146;2023-09-18T07:15:53;9.88;;;6.32;;
62024;SDS011;47978;49.118;12.146;2023-09-18T07:19:56;8.40;;;5.88;;
62024;SDS011;47978;49.118;12.146;2023-09-18T07:27:59;7.15;;;5.82;;
62024;SDS011;47978;49.118;12.146;2023-09-18T07:32:00;7.95;;;5.82;;
62024;SDS011;47978;49.118;12.146;2023-09-18T07:36:03;9.38;;;5.38;;
62024;SDS011;47978;49.118;12.146;2023-09-18T07:40:06;7.50;;;5.85;;
62024;SDS011;47978;49.118;12.146;2023-09-18T07:44:08;9.60;;;5.15;;
62024;SDS011;47978;49.118;12.146;2023-09-18T07:48:10;6.90;;;5.30;;
62024;SDS011;47978;49.118;12.146;2023-09-18T07:52:13;5.55;;;4.85;;
62024;SDS011;47978;49.118;12.146;2023-09-18T07:56:14;7.60;;;4.80;;
62024;SDS011;47978;49.118;12.146;2023-09-18T08:00:16;6.68;;;5.28;;
62024;SDS011;47978;49.118;12.146;2023-09-18T08:04:18;5.10;;;4.15;;
62024;SDS011;47978;49.118;12.146;2023-09-18T08:08:21;8.10;;;5.22;;
62024;SDS011;47978;49.118;12.146;2023-09-18T08:12:23;11.07;;;5.35;;
62024;SDS011;47978;49.118;12.146;2023-09-18T08:16:25;7.03;;;5.10;;
62024;SDS011;47978;49.118;12.146;2023-09-18T08:20:26;7.65;;;5.15;;
62024;SDS011;47978;49.118;12.146;2023-09-18T08:24:29;9.27;;;5.03;;
62024;SDS011;47978;49.118;12.146;2023-09-18T08:28:31;7.82;;;5.03;;
62024;SDS011;47978;49.118;12.146;2023-09-18T08:32:33;9.68;;;6.15;;
62024;SDS011;47978;49.118;12.146;2023-09-18T08:36:34;9.15;;;5.15;;
62024;SDS011;47978;49.118;12.146;2023-09-18T08:40:39;6.72;;;5.28;;
62024;SDS011;47978;49.118;12.146;2023-09-18T08:44:41;8.10;;;5.15;;
62024;SDS011;47978;49.118;12.146;2023-09-18T08:48:46;9.48;;;5.65;;
62024;SDS011;47978;49.118;12.146;2023-09-18T08:52:48;9.53;;;5.90;;
62024;SDS011;47978;49.118;12.146;2023-09-18T08:56:52;8.27;;;5.35;;
62024;SDS011;47978;49.118;12.146;2023-09-18T09:00:55;8.07;;;4.90;;
62024;SDS011;47978;49.118;12.146;2023-09-18T09:04:56;8.95;;;5.40;;
62024;SDS011;47978;49.118;12.146;2023-09-18T09:08:58;6.60;;;5.15;;
62024;SDS011;47978;49.118;12.146;2023-09-18T09:13:01;9.95;;;5.30;;
62024;SDS011;47978;49.118;12.146;2023-09-18T09:17:03;7.82;;;5.47;;
62024;SDS011;47978;49.118;12.146;2023-09-18T09:21:05;8.07;;;5.53;;
62024;SDS011;47978;49.118;12.146;2023-09-18T09:25:21;7.30;;;5.88;;
62024;SDS011;47978;49.118;12.146;2023-09-18T09:29:25;6.35;;;5.65;;
62024;SDS011;47978;49.118;12.146;2023-09-18T09:33:27;9.07;;;5.95;;
62024;SDS011;47978;49.118;12.146;2023-09-18T09:37:29;9.23;;;5.83;;
62024;SDS011;47978;49.118;12.146;2023-09-18T09:41:31;11.73;;;5.23;;
62024;SDS011;47978;49.118;12.146;2023-09-18T09:45:34;9.13;;;5.13;;
62024;SDS011;47978;49.118;12.146;2023-09-18T09:49:44;14.93;;;5.88;;
62024;SDS011;47978;49.118;12.146;2023-09-18T09:53:47;12.63;;;5.35;;
62024;SDS011;47978;49.118;12.146;2023-09-18T09:57:49;7.63;;;5.10;;
62024;SDS011;47978;49.118;12.146;2023-09-18T10:01:53;12.63;;;5.57;;
62024;SDS011;47978;49.118;12.146;2023-09-18T10:05:54;12.68;;;5.15;;
62024;SDS011;47978;49.118;12.146;2023-09-18T10:09:58;8.38;;;4.78;;
62024;SDS011;47978;49.118;12.146;2023-09-18T10:14:02;10.45;;;5.45;;
62024;SDS011;47978;49.118;12.146;2023-09-18T10:18:18;18.92;;;5.30;;
62024;SDS011;47978;49.118;12.146;2023-09-18T10:22:28;12.73;;;4.97;;
62024;SDS011;47978;49.118;12.146;2023-09-18T10:26:32;20.10;;;4.80;;
62024;SDS011;47978;49.118;12.146;2023-09-18T10:30:40;8.88;;;4.57;;
62024;SDS011;47978;49.118;12.146;2023-09-18T10:34:44;8.30;;;4.63;;
62024;SDS011;47978;49.118;12.146;2023-09-18T10:38:47;11.25;;;4.70;;
62024;SDS011;47978;49.118;12.146;2023-09-18T10:42:50;12.82;;;4.97;;
62024;SDS011;47978;49.118;12.146;2023-09-18T10:46:53;19.20;;;5.30;;
62024;SDS011;47978;49.118;12.146;2023-09-18T10:50:56;14.50;;;5.13;;
62024;SDS011;47978;49.118;12.146;2023-09-18T10:54:58;13.32;;;5.10;;
62024;SDS011;47978;49.118;12.146;2023-09-18T10:59:00;7.85;;;4.57;;
62024;SDS011;47978;49.118;12.146;2023-09-18T11:03:09;23.60;;;4.80;;
62024;SDS011;47978;49.118;12.146;2023-09-18T11:07:22;19.13;;;4.80;;
62024;SDS011;47978;49.118;12.146;2023-09-18T11:11:24;14.75;;;5.60;;
62024;SDS011;47978;49.118;12.146;2023-09-18T11:15:26;17.52;;;6.28;;
62024;SDS011;47978;49.118;12.146;2023-09-18T11:19:32;17.63;;;4.88;;
62024;SDS011;47978;49.118;12.146;2023-09-18T11:23:36;12.47;;;4.33;;
62024;SDS011;47978;49.118;12.146;2023-09-18T11:27:50;12.98;;;4.90;;
62024;SDS011;47978;49.118;12.146;2023-09-18T11:31:54;14.82;;;5.45;;
62024;SDS011;47978;49.118;12.146;2023-09-18T11:36:01;9.70;;;4.47;;
62024;SDS011;47978;49.118;12.146;2023-09-18T11:40:11;15.23;;;4.70;;
62024;SDS011;47978;49.118;12.146;2023-09-18T11:44:32;7.18;;;3.53;;
62024;SDS011;47978;49.118;12.146;2023-09-18T11:48:38;14.85;;;3.38;;
62024;SDS011;47978;49.118;12.146;2023-09-18T11:52:43;9.43;;;3.47;;
62024;SDS011;47978;49.118;12.146;2023-09-18T11:56:46;9.18;;;3.42;;
62024;SDS011;47978;49.118;12.146;2023-09-18T12:00:47;9.43;;;3.00;;
62024;SDS011;47978;49.118;12.146;2023-09-18T12:04:49;11.98;;;2.80;;
62024;SDS011;47978;49.118;12.146;2023-09-18T12:08:51;15.93;;;3.22;;
62024;SDS011;47978;49.118;12.146;2023-09-18T12:12:54;13.23;;;3.28;;
62024;SDS011;47978;49.118;12.146;2023-09-18T12:16:56;10.10;;;2.78;;
62024;SDS011;47978;49.118;12.146;2023-09-18T12:20:58;13.25;;;3.40;;
62024;SDS011;47978;49.118;12.146;2023-09-18T12:25:09;7.00;;;2.92;;
62024;SDS011;47978;49.118;12.146;2023-09-18T12:29:17;7.45;;;3.30;;
62024;SDS011;47978;49.118;12.146;2023-09-18T12:33:18;7.40;;;2.83;;
62024;SDS011;47978;49.118;12.146;2023-09-18T12:37:20;7.13;;;3.07;;
62024;SDS011;47978;49.118;12.146;2023-09-18T12:41:23;9.95;;;2.65;;
62024;SDS011;47978;49.118;12.146;2023-09-18T12:45:27;11.70;;;2.63;;
62024;SDS011;47978;49.118;12.146;2023-09-18T12:49:30;5.78;;;2.40;;
62024;SDS011;47978;49.118;12.146;2023-09-18T12:53:31;8.68;;;2.95;;
62024;SDS011;47978;49.118;12.146;2023-09-18T12:57:33;4.70;;;2.53;;
62024;SDS011;47978;49.118;12.146;2023-09-18T13:01:36;9.52;;;2.78;;
62024;SDS011;47978;49.118;12.146;2023-09-18T13:05:38;9.88;;;2.63;;
62024;SDS011;47978;49.118;12.146;2023-09-18T13:09:40;6.50;;;1.70;;
62024;SDS011;47978;49.118;12.146;2023-09-18T13:13:42;7.35;;;2.13;;
62024;SDS011;47978;49.118;12.146;2023-09-18T13:17:45;5.80;;;1.77;;
62024;SDS011;47978;49.118;12.146;2023-09-18T13:21:47;6.10;;;2.22;;
62024;SDS011;47978;49.118;12.146;2023-09-18T13:25:49;5.10;;;2.23;;
62024;SDS011;47978;49.118;12.146;2023-09-18T13:29:51;9.10;;;1.90;;
62024;SDS011;47978;49.118;12.146;2023-09-18T13:33:54;7.35;;;1.90;;
62024;SDS011;47978;49.118;12.146;2023-09-18T13:37:56;4.10;;;1.70;;
62024;SDS011;47978;49.118;12.146;2023-09-18T13:41:58;4.57;;;1.73;;
62024;SDS011;47978;49.118;12.146;2023-09-18T13:45:59;4.07;;;1.45;;
62024;SDS011;47978;49.118;12.146;2023-09-18T13:50:02;4.93;;;1.70;;
62024;SDS011;47978;49.118;12.146;2023-09-18T13:54:05;5.13;;;1.35;;
62024;SDS011;47978;49.118;12.146;2023-09-18T13:58:07;5.20;;;1.40;;
62024;SDS011;47978;49.118;12.146;2023-09-18T14:02:09;4.40;;;1.50;;
62024;SDS011;47978;49.118;12.146;2023-09-18T14:06:11;4.30;;;1.10;;
62024;SDS011;47978;49.118;12.146;2023-09-18T14:10:14;0.82;;;0.73;;
62024;SDS011;47978;49.118;12.146;2023-09-18T14:14:16;4.88;;;1.10;;
62024;SDS011;47978;49.118;12.146;2023-09-18T14:18:17;4.65;;;1.05;;
62024;SDS011;47978;49.118;12.146;2023-09-18T14:22:20;5.80;;;1.10;;
62024;SDS011;47978;49.118;12.146;2023-09-18T14:26:22;2.15;;;1.27;;
62024;SDS011;47978;49.118;12.146;2023-09-18T14:30:24;6.07;;;1.30;;
62024;SDS011;47978;49.118;12.146;2023-09-18T14:34:25;6.90;;;1.73;;
62024;SDS011;47978;49.118;12.146;2023-09-18T14:38:28;6.55;;;1.52;;
62024;SDS011;47978;49.118;12.146;2023-09-18T14:46:31;4.25;;;1.38;;
62024;SDS011;47978;49.118;12.146;2023-09-18T14:50:33;2.92;;;1.40;;
62024;SDS011;47978;49.118;12.146;2023-09-18T14:54:36;3.92;;;1.10;;
62024;SDS011;47978;49.118;12.146;2023-09-18T15:02:39;6.70;;;1.40;;
62024;SDS011;47978;49.118;12.146;2023-09-18T15:06:41;3.72;;;1.38;;
62024;SDS011;47978;49.118;12.146;2023-09-18T15:10:44;4.70;;;1.70;;
62024;SDS011;47978;49.118;12.146;2023-09-18T15:14:46;6.35;;;1.92;;
62024;SDS011;47978;49.118;12.146;2023-09-18T15:18:47;3.92;;;1.30;;
62024;SDS011;47978;49.118;12.146;2023-09-18T15:22:49;6.38;;;1.30;;
62024;SDS011;47978;49.118;12.146;2023-09-18T15:26:52;2.17;;;1.05;;
62024;SDS011;47978;49.118;12.146;2023-09-18T15:34:55;2.72;;;1.00;;
62024;SDS011;47978;49.118;12.146;2023-09-18T15:38:57;4.03;;;1.20;;
62024;SDS011;47978;49.118;12.146;2023-09-18T15:43:00;4.18;;;1.20;;
62024;SDS011;47978;49.118;12.146;2023-09-18T15:47:02;4.50;;;1.60;;
62024;SDS011;47978;49.118;12.146;2023-09-18T15:51:03;2.38;;;1.20;;
62024;SDS011;47978;49.118;12.146;2023-09-18T15:55:05;2.50;;;1.25;;
62024;SDS011;47978;49.118;12.146;2023-09-18T15:59:09;5.90;;;1.52;;
62024;SDS011;47978;49.118;12.146;2023-09-18T16:03:10;6.47;;;1.52;;
62024;SDS011;47978;49.118;12.146;2023-09-18T16:07:12;2.53;;;1.20;;
62024;SDS011;47978;49.118;12.146;2023-09-18T16:11:14;3.15;;;1.40;;
62024;SDS011;47978;49.118;12.146;2023-09-18T16:15:17;4.55;;;1.55;;
62024;SDS011;47978;49.118;12.146;2023-09-18T16:19:18;5.28;;;1.50;;
62024;SDS011;47978;49.118;12.146;2023-09-18T16:23:20;3.75;;;1.52;;
62024;SDS011;47978;49.118;12.146;2023-09-18T16:27:22;5.72;;;2.13;;
62024;SDS011;47978;49.118;12.146;2023-09-18T16:31:24;4.68;;;2.00;;
62024;SDS011;47978;49.118;12.146;2023-09-18T16:35:26;2.45;;;1.70;;
62024;SDS011;47978;49.118;12.146;2023-09-18T16:39:28;4.72;;;1.70;;
62024;SDS011;47978;49.118;12.146;2023-09-18T16:43:29;3.50;;;1.88;;
62024;SDS011;47978;49.118;12.146;2023-09-18T16:47:38;5.88;;;1.65;;
62024;SDS011;47978;49.118;12.146;2023-09-18T16:51:39;5.35;;;1.77;;
62024;SDS011;47978;49.118;12.146;2023-09-18T16:55:41;2.65;;;1.60;;
62024;SDS011;47978;49.118;12.146;2023-09-18T16:59:42;4.40;;;1.58;;
62024;SDS011;47978;49.118;12.146;2023-09-18T17:03:45;3.05;;;1.70;;
62024;SDS011;47978;49.118;12.146;2023-09-18T17:07:47;2.47;;;1.40;;
62024;SDS011;47978;49.118;12.146;2023-09-18T17:11:49;4.30;;;1.45;;
62024;SDS011;47978;49.118;12.146;2023-09-18T17:15:51;2.58;;;1.48;;
62024;SDS011;47978;49.118;12.146;2023-09-18T17:19:54;3.42;;;1.58;;
62024;SDS011;47978;49.118;12.146;2023-09-18T17:23:55;4.05;;;1.67;;
62024;SDS011;47978;49.118;12.146;2023-09-18T17:27:57;3.33;;;1.83;;
62024;SDS011;47978;49.118;12.146;2023-09-18T17:31:59;5.13;;;1.95;;
62024;SDS011;47978;49.118;12.146;2023-09-18T17:36:02;3.10;;;1.73;;
62024;SDS011;47978;49.118;12.146;2023-09-18T17:40:04;3.35;;;1.80;;
62024;SDS011;47978;49.118;12.146;2023-09-18T17:44:06;3.72;;;1.65;;
62024;SDS011;47978;49.118;12.146;2023-09-18T17:48:08;4.30;;;1.95;;
62024;SDS011;47978;49.118;12.146;2023-09-18T17:52:11;5.53;;;2.38;;
62024;SDS011;47978;49.118;12.146;2023-09-18T18:00:14;7.05;;;2.90;;
62024;SDS011;47978;49.118;12.146;2023-09-18T18:04:16;4.38;;;2.28;;
62024;SDS011;47978;49.118;12.146;2023-09-18T18:08:19;3.40;;;2.10;;
62024;SDS011;47978;49.118;12.146;2023-09-18T18:16:22;4.15;;;2.22;;
62024;SDS011;47978;49.118;12.146;2023-09-18T18:20:23;6.32;;;2.40;;
62024;SDS011;47978;49.118;12.146;2023-09-18T18:24:26;5.57;;;2.85;;
62024;SDS011;47978;49.118;12.146;2023-09-18T18:28:28;7.13;;;2.72;;
62024;SDS011;47978;49.118;12.146;2023-09-18T18:32:29;6.30;;;2.70;;
62024;SDS011;47978;49.118;12.146;2023-09-18T18:36:31;5.38;;;2.80;;
62024;SDS011;47978;49.118;12.146;2023-09-18T18:40:34;5.05;;;2.58;;
62024;SDS011;47978;49.118;12.146;2023-09-18T18:44:42;6.97;;;2.70;;
62024;SDS011;47978;49.118;12.146;2023-09-18T18:48:43;8.18;;;2.85;;
62024;SDS011;47978;49.118;12.146;2023-09-18T18:52:45;6.13;;;3.10;;
62024;SDS011;47978;49.118;12.146;2023-09-18T18:56:48;8.70;;;3.33;;
62024;SDS011;47978;49.118;12.146;2023-09-18T19:00:50;12.45;;;3.83;;
62024;SDS011;47978;49.118;12.146;2023-09-18T19:04:51;6.88;;;3.45;;
62024;SDS011;47978;49.118;12.146;2023-09-18T19:08:53;5.68;;;3.13;;
62024;SDS011;47978;49.118;12.146;2023-09-18T19:12:56;4.82;;;3.67;;
62024;SDS011;47978;49.118;12.146;2023-09-18T19:16:57;5.38;;;3.55;;
62024;SDS011;47978;49.118;12.146;2023-09-18T19:20:59;6.22;;;3.67;;
62024;SDS011;47978;49.118;12.146;2023-09-18T19:25:01;5.65;;;3.90;;
62024;SDS011;47978;49.118;12.146;2023-09-18T19:29:04;11.25;;;4.15;;
62024;SDS011;47978;49.118;12.146;2023-09-18T19:33:05;6.68;;;4.00;;
62024;SDS011;47978;49.118;12.146;2023-09-18T19:37:07;5.68;;;4.07;;
62024;SDS011;47978;49.118;12.146;2023-09-18T19:41:09;8.43;;;4.90;;
62024;SDS011;47978;49.118;12.146;2023-09-18T19:45:12;9.63;;;4.35;;
62024;SDS011;47978;49.118;12.146;2023-09-18T19:49:14;6.93;;;3.88;;
62024;SDS011;47978;49.118;12.146;2023-09-18T19:53:16;7.28;;;3.58;;
62024;SDS011;47978;49.118;12.146;2023-09-18T19:57:18;7.72;;;3.97;;
62024;SDS011;47978;49.118;12.146;2023-09-18T20:01:20;6.70;;;3.40;;
62024;SDS011;47978;49.118;12.146;2023-09-18T20:05:22;9.38;;;3.30;;
62024;SDS011;47978;49.118;12.146;2023-09-18T20:09:24;6.28;;;3.20;;
62024;SDS011;47978;49.118;12.146;2023-09-18T20:13:26;5.75;;;3.22;;
62024;SDS011;47978;49.118;12.146;2023-09-18T20:17:29;9.50;;;2.83;;
62024;SDS011;47978;49.118;12.146;2023-09-18T20:25:34;6.93;;;2.35;;
62024;SDS011;47978;49.118;12.146;2023-09-18T20:29:39;6.60;;;2.72;;
62024;SDS011;47978;49.118;12.146;2023-09-18T20:33:42;4.90;;;2.00;;
62024;SDS011;47978;49.118;12.146;2023-09-18T20:37:44;6.07;;;2.25;;
62024;SDS011;47978;49.118;12.146;2023-09-18T20:41:45;6.20;;;2.63;;
62024;SDS011;47978;49.118;12.146;2023-09-18T20:45:47;4.35;;;2.20;;
62024;SDS011;47978;49.118;12.146;2023-09-18T20:49:51;3.08;;;2.03;;
62024;SDS011;47978;49.118;12.146;2023-09-18T20:53:54;4.45;;;2.20;;
62024;SDS011;47978;49.118;12.146;2023-09-18T20:57:55;4.72;;;2.10;;
62024;SDS011;47978;49.118;12.146;2023-09-18T21:01:57;5.13;;;2.00;;
62024;SDS011;47978;49.118;12.146;2023-09-18T21:06:00;4.10;;;2.00;;
62024;SDS011;47978;49.118;12.146;2023-09-18T21:10:01;5.55;;;2.20;;
62024;SDS011;47978;49.118;12.146;2023-09-18T21:14:03;5.32;;;2.15;;
62024;SDS011;47978;49.118;12.146;2023-09-18T21:18:05;3.80;;;1.92;;
62024;SDS011;47978;49.118;12.146;2023-09-18T21:22:09;4.57;;;2.20;;
62024;SDS011;47978;49.118;12.146;2023-09-18T21:30:12;4.82;;;2.20;;
62024;SDS011;47978;49.118;12.146;2023-09-18T21:34:14;3.30;;;1.77;;
62024;SDS011;47978;49.118;12.146;2023-09-18T21:38:17;5.72;;;1.83;;
62024;SDS011;47978;49.118;12.146;2023-09-18T21:42:18;4.05;;;1.80;;
62024;SDS011;47978;49.118;12.146;2023-09-18T21:46:20;4.20;;;2.10;;
62024;SDS011;47978;49.118;12.146;2023-09-18T21:50:22;7.07;;;2.17;;
62024;SDS011;47978;49.118;12.146;2023-09-18T21:54:25;4.28;;;2.08;;
62024;SDS011;47978;49.118;12.146;2023-09-18T22:02:28;4.95;;;1.88;;
62024;SDS011;47978;49.118;12.146;2023-09-18T22:06:29;5.85;;;2.30;;
62024;SDS011;47978;49.118;12.146;2023-09-18T22:10:32;3.47;;;2.00;;
62024;SDS011;47978;49.118;12.146;2023-09-18T22:14:34;4.75;;;2.50;;
62024;SDS011;47978;49.118;12.146;2023-09-18T22:18:35;6.07;;;1.90;;
62024;SDS011;47978;49.118;12.146;2023-09-18T22:22:37;3.05;;;1.83;;
62024;SDS011;47978;49.118;12.146;2023-09-18T22:26:40;4.47;;;1.90;;
62024;SDS011;47978;49.118;12.146;2023-09-18T22:30:42;3.35;;;1.92;;
62024;SDS011;47978;49.118;12.146;2023-09-18T22:34:43;4.35;;;2.20;;
62024;SDS011;47978;49.118;12.146;2023-09-18T22:38:49;5.47;;;2.03;;
62024;SDS011;47978;49.118;12.146;2023-09-18T22:56:41;6.68;;;2.50;;
62024;SDS011;47978;49.118;12.146;2023-09-18T23:00:42;6.65;;;2.40;;
62024;SDS011;47978;49.118;12.146;2023-09-18T23:04:44;3.97;;;2.30;;
62024;SDS011;47978;49.118;12.146;2023-09-18T23:12:50;4.80;;;2.15;;
62024;SDS011;47978;49.118;12.146;2023-09-18T23:16:51;4.13;;;2.20;;
62024;SDS011;47978;49.118;12.146;2023-09-18T23:21:04;5.00;;;2.03;;
62024;SDS011;47978;49.118;12.146;2023-09-18T23:25:06;5.03;;;2.15;;
62024;SDS011;47978;49.118;12.146;2023-09-18T23:33:11;6.27;;;2.20;;
62024;SDS011;47978;49.118;12.146;2023-09-18T23:37:13;4.65;;;2.33;;
62024;SDS011;47978;49.118;12.146;2023-09-18T23:41:14;6.90;;;2.40;;
62024;SDS011;47978;49.118;12.146;2023-09-18T23:45:17;5.82;;;2.03;;
62024;SDS011;47978;49.118;12.146;2023-09-18T23:49:19;3.17;;;2.22;;
62024;SDS011;47978;49.118;12.146;2023-09-18T23:53:20;7.72;;;2.47;;
62024;SDS011;47978;49.118;12.146;2023-09-18T23:57:22;3.80;;;2.20;;
